Time;durP1;ratioP1;P1;durP2;ratioP2;P2;SDS_P1;SDS_P2;PMS_P1;PMS_P2;Temp;Humidity;BMP_temperature;BMP_pressure;BME280_temperature;BME280_humidity;BME280_pressure;Samples;Min_cycle;Max_cycle;Signal;HPM_P1;HPM_P2
2022/07/24 00:01:35;;;;;;;3.38;3.17;;;23.10;99.90;;;;;;5104990;27;20200;-72
2022/07/24 00:04:04;;;;;;;3.13;2.85;;;23.10;99.90;;;;;;5101957;27;20236;-70
2022/07/24 00:06:31;;;;;;;3.90;3.60;;;23.10;99.90;;;;;;5098142;27;20220;-71
2022/07/24 00:08:58;;;;;;;4.07;3.35;;;23.00;99.90;;;;;;5093281;27;20216;-70
2022/07/24 00:11:26;;;;;;;2.92;2.72;;;23.00;99.90;;;;;;5096850;27;20202;-70
2022/07/24 00:13:54;;;;;;;3.63;3.33;;;23.00;99.90;;;;;;5088219;27;20225;-70
2022/07/24 00:16:21;;;;;;;3.80;3.50;;;23.00;99.90;;;;;;5098346;27;20235;-69
2022/07/24 00:18:48;;;;;;;3.30;3.10;;;23.00;99.90;;;;;;5091522;27;20314;-71
2022/07/24 00:21:15;;;;;;;2.88;2.67;;;22.90;99.90;;;;;;5087937;27;20232;-69
2022/07/24 00:23:42;;;;;;;3.33;3.03;;;22.90;99.90;;;;;;5088237;27;20213;-70
2022/07/24 00:26:10;;;;;;;3.20;3.00;;;22.80;99.90;;;;;;5092545;27;20225;-69
2022/07/24 00:28:38;;;;;;;3.15;2.95;;;22.80;99.90;;;;;;5102468;27;20244;-70
2022/07/24 00:31:06;;;;;;;3.85;3.55;;;22.70;99.90;;;;;;5101311;27;20199;-70
2022/07/24 00:33:33;;;;;;;3.17;2.97;;;22.70;99.90;;;;;;5099338;27;20223;-70
2022/07/24 00:36:00;;;;;;;3.55;3.17;;;22.50;99.90;;;;;;5103175;27;20207;-71
2022/07/24 00:38:27;;;;;;;4.70;3.70;;;22.40;99.90;;;;;;5102023;27;20233;-70
2022/07/24 00:40:55;;;;;;;3.30;3.00;;;22.40;99.90;;;;;;5099849;27;20575;-69
2022/07/24 00:43:22;;;;;;;3.60;3.28;;;22.40;99.90;;;;;;5099153;27;20284;-71
2022/07/24 00:45:51;;;;;;;3.50;3.05;;;22.40;99.90;;;;;;5103929;27;20201;-69
2022/07/24 00:48:18;;;;;;;4.57;3.40;;;22.40;99.90;;;;;;5102701;27;20235;-71
2022/07/24 00:50:45;;;;;;;4.18;3.45;;;22.40;99.90;;;;;;5100173;27;20197;-70
2022/07/24 00:53:12;;;;;;;3.13;2.83;;;22.40;99.90;;;;;;5109820;27;20590;-70
2022/07/24 00:55:40;;;;;;;3.13;2.92;;;22.40;99.90;;;;;;5098188;27;20198;-70
2022/07/24 00:58:07;;;;;;;3.72;3.42;;;22.40;99.90;;;;;;5114929;27;20252;-70
2022/07/24 01:00:34;;;;;;;3.55;2.97;;;22.40;99.90;;;;;;5104955;27;20197;-70
2022/07/24 01:03:03;;;;;;;3.15;2.95;;;22.30;99.90;;;;;;5102689;27;20216;-70
2022/07/24 01:05:30;;;;;;;3.58;3.28;;;22.30;99.90;;;;;;5108293;27;20207;-70
2022/07/24 01:07:57;;;;;;;2.95;2.75;;;22.40;99.90;;;;;;5106928;27;20222;-69
2022/07/24 01:10:24;;;;;;;3.05;2.75;;;22.30;99.90;;;;;;5103673;27;20221;-70
2022/07/24 01:12:52;;;;;;;2.90;2.70;;;22.30;99.90;;;;;;5100900;28;20707;-71
2022/07/24 01:15:19;;;;;;;3.03;2.83;;;22.30;99.90;;;;;;5106087;27;20209;-71
2022/07/24 01:17:46;;;;;;;2.75;2.55;;;22.20;99.90;;;;;;5102421;27;20225;-69
2022/07/24 01:20:14;;;;;;;3.20;3.00;;;22.20;99.90;;;;;;5102041;27;20217;-69
2022/07/24 01:22:43;;;;;;;3.17;2.97;;;22.20;99.90;;;;;;5103509;27;20216;-71
2022/07/24 01:25:10;;;;;;;2.92;2.72;;;22.20;99.90;;;;;;5102385;27;20288;-69
2022/07/24 01:27:38;;;;;;;2.88;2.67;;;22.10;99.90;;;;;;5098872;27;20599;-70
2022/07/24 01:30:06;;;;;;;3.22;3.03;;;22.10;99.90;;;;;;5103910;27;20222;-70
2022/07/24 01:32:33;;;;;;;2.90;2.70;;;22.10;99.90;;;;;;5104034;27;20265;-71
2022/07/24 01:35:00;;;;;;;3.25;3.05;;;22.10;99.90;;;;;;5104658;27;20220;-69
2022/07/24 01:37:27;;;;;;;3.13;2.92;;;22.10;99.90;;;;;;5100687;27;20228;-70
2022/07/24 01:39:55;;;;;;;3.30;3.10;;;22.10;99.90;;;;;;5097105;27;20248;-70
2022/07/24 01:42:25;;;;;;;2.88;2.67;;;22.00;99.90;;;;;;5102905;27;20221;-69
2022/07/24 01:44:52;;;;;;;2.80;2.60;;;22.00;99.90;;;;;;5101615;27;20652;-70
2022/07/24 01:47:19;;;;;;;2.95;2.75;;;22.00;99.90;;;;;;5106428;27;20227;-70
2022/07/24 01:49:47;;;;;;;3.28;3.08;;;22.00;99.90;;;;;;5096612;28;20213;-71
2022/07/24 01:52:14;;;;;;;3.20;3.00;;;21.90;99.90;;;;;;5103406;27;20241;-70
2022/07/24 01:54:41;;;;;;;5.13;3.83;;;21.90;99.90;;;;;;5102826;27;20213;-70
2022/07/24 01:57:09;;;;;;;3.20;3.00;;;21.90;99.90;;;;;;5103778;27;20224;-70
2022/07/24 01:59:36;;;;;;;3.15;2.95;;;21.90;99.90;;;;;;5101123;27;20290;-70
2022/07/24 02:02:04;;;;;;;2.92;2.72;;;21.90;99.90;;;;;;5103558;27;20217;-70
2022/07/24 02:04:31;;;;;;;3.17;2.97;;;21.90;99.90;;;;;;5105287;27;20193;-71
2022/07/24 02:06:58;;;;;;;3.50;3.20;;;21.80;99.90;;;;;;5103664;27;20227;-70
2022/07/24 02:09:25;;;;;;;3.33;3.13;;;21.80;99.90;;;;;;5100937;27;20488;-70
2022/07/24 02:11:52;;;;;;;3.08;2.88;;;21.90;99.90;;;;;;5105093;27;20562;-70
2022/07/24 02:14:21;;;;;;;3.03;2.83;;;21.90;99.90;;;;;;5100445;27;20652;-70
2022/07/24 02:16:48;;;;;;;3.38;3.08;;;21.80;99.90;;;;;;5104714;27;20185;-70
2022/07/24 02:19:15;;;;;;;3.38;3.13;;;21.80;99.90;;;;;;5103606;27;20225;-71
2022/07/24 02:21:43;;;;;;;3.55;3.25;;;21.80;99.90;;;;;;5096843;27;20609;-68
2022/07/24 02:24:10;;;;;;;2.95;2.75;;;21.80;99.90;;;;;;5092604;28;20209;-70
2022/07/24 02:26:37;;;;;;;2.80;2.60;;;21.80;99.90;;;;;;5099732;27;20577;-71
2022/07/24 02:29:04;;;;;;;3.03;2.83;;;21.80;99.90;;;;;;5092752;27;20544;-70
2022/07/24 02:31:33;;;;;;;3.20;3.00;;;21.80;99.90;;;;;;5100994;27;20260;-71
2022/07/24 02:34:00;;;;;;;3.17;2.97;;;21.80;99.90;;;;;;5098910;27;22195;-71
2022/07/24 02:36:27;;;;;;;2.90;2.70;;;21.80;99.90;;;;;;5099120;27;20198;-72
2022/07/24 02:38:54;;;;;;;2.90;2.70;;;21.80;99.90;;;;;;5100873;27;20739;-70
2022/07/24 02:41:21;;;;;;;3.42;3.22;;;21.70;99.90;;;;;;5100544;27;20197;-69
2022/07/24 02:43:48;;;;;;;3.50;3.30;;;21.70;99.90;;;;;;5097791;27;20231;-70
2022/07/24 02:46:15;;;;;;;3.00;2.80;;;21.70;99.90;;;;;;5105650;27;20210;-71
2022/07/24 02:48:44;;;;;;;3.30;3.10;;;21.60;99.90;;;;;;5101819;27;20233;-68
2022/07/24 02:51:11;;;;;;;3.08;2.88;;;21.60;99.90;;;;;;5097614;28;20193;-70
2022/07/24 02:53:38;;;;;;;2.83;2.63;;;21.60;99.90;;;;;;5103971;27;20284;-71
2022/07/24 02:56:06;;;;;;;3.22;3.03;;;21.60;99.90;;;;;;5102621;28;20188;-71
2022/07/24 02:58:33;;;;;;;2.85;2.65;;;21.60;99.90;;;;;;5105294;27;20216;-71
2022/07/24 03:01:00;;;;;;;2.90;2.70;;;21.60;99.90;;;;;;5100295;28;20205;-71
2022/07/24 03:03:28;;;;;;;2.85;2.65;;;21.60;99.90;;;;;;5101323;27;20235;-70
2022/07/24 03:05:56;;;;;;;3.28;3.00;;;21.60;99.90;;;;;;5101917;28;20201;-69
2022/07/24 03:08:23;;;;;;;3.70;3.40;;;21.60;99.90;;;;;;5098845;27;20212;-70
2022/07/24 03:10:50;;;;;;;3.28;3.08;;;21.60;99.90;;;;;;5100503;28;20540;-69
2022/07/24 03:13:17;;;;;;;3.50;3.30;;;21.50;99.90;;;;;;5104264;27;20225;-71
2022/07/24 03:15:44;;;;;;;3.15;2.85;;;21.50;99.90;;;;;;5099531;28;20197;-70
2022/07/24 03:18:11;;;;;;;4.13;3.15;;;21.50;99.90;;;;;;5099716;27;20210;-70
2022/07/24 03:20:38;;;;;;;3.58;3.08;;;21.50;99.90;;;;;;5096910;27;20253;-70
2022/07/24 03:23:07;;;;;;;3.20;3.00;;;21.40;99.90;;;;;;5102805;27;20221;-71
2022/07/24 03:25:34;;;;;;;3.08;2.78;;;21.40;99.90;;;;;;5103225;28;20196;-71
2022/07/24 03:28:01;;;;;;;3.53;3.30;;;21.40;99.90;;;;;;5098422;27;20223;-71
2022/07/24 03:30:28;;;;;;;3.10;2.90;;;21.40;99.90;;;;;;5103622;28;20228;-71
2022/07/24 03:32:55;;;;;;;3.28;3.08;;;21.40;99.90;;;;;;5102098;27;20219;-70
2022/07/24 03:35:22;;;;;;;3.28;3.08;;;21.40;99.90;;;;;;5095116;28;20280;-71
2022/07/24 03:37:50;;;;;;;3.40;3.10;;;21.50;99.90;;;;;;5095379;28;20706;-70
2022/07/24 03:40:18;;;;;;;2.85;2.65;;;21.50;99.90;;;;;;5091224;28;20728;-70
2022/07/24 03:42:45;;;;;;;3.58;3.28;;;21.50;99.90;;;;;;5102711;27;20240;-71
2022/07/24 03:45:12;;;;;;;3.50;3.30;;;21.50;99.90;;;;;;5100444;28;20557;-71
2022/07/24 03:47:39;;;;;;;3.70;3.40;;;21.50;99.90;;;;;;5101242;27;20614;-70
2022/07/24 03:50:07;;;;;;;3.30;3.00;;;21.40;99.90;;;;;;5098537;28;20214;-70
2022/07/24 03:52:34;;;;;;;3.67;3.38;;;21.40;99.90;;;;;;5102137;27;20216;-70
2022/07/24 03:55:01;;;;;;;3.92;3.63;;;21.40;99.90;;;;;;5094089;28;20204;-70
2022/07/24 03:57:29;;;;;;;3.58;3.28;;;21.40;99.90;;;;;;5103170;27;20323;-68
2022/07/24 03:59:56;;;;;;;3.20;3.00;;;21.50;99.90;;;;;;5099885;27;20769;-68
2022/07/24 04:02:23;;;;;;;3.55;3.25;;;21.50;99.90;;;;;;5105520;27;20717;-68
2022/07/24 04:04:51;;;;;;;3.47;3.20;;;21.50;99.90;;;;;;5104465;27;20215;-69
2022/07/24 04:07:18;;;;;;;3.30;3.00;;;21.50;99.90;;;;;;5101672;27;20221;-68
2022/07/24 04:09:45;;;;;;;3.15;2.95;;;21.50;99.90;;;;;;5102584;27;20221;-68
2022/07/24 04:12:12;;;;;;;3.40;3.20;;;21.60;99.90;;;;;;5101417;27;20224;-71
2022/07/24 04:14:41;;;;;;;3.50;3.20;;;21.60;99.90;;;;;;5105486;27;20682;-72
2022/07/24 04:17:08;;;;;;;3.10;2.90;;;21.50;99.90;;;;;;5099857;27;20718;-71
2022/07/24 04:19:35;;;;;;;3.20;3.00;;;21.40;99.90;;;;;;5102059;27;20570;-71
2022/07/24 04:22:02;;;;;;;3.10;2.90;;;21.30;99.90;;;;;;5102128;27;20705;-70
2022/07/24 04:24:29;;;;;;;3.20;3.00;;;21.30;99.90;;;;;;5104839;27;20663;-70
2022/07/24 04:26:56;;;;;;;3.72;3.42;;;21.20;99.90;;;;;;5104116;27;20193;-70
2022/07/24 04:29:23;;;;;;;3.00;2.80;;;21.10;99.90;;;;;;5101446;27;20214;-71
2022/07/24 04:31:52;;;;;;;2.90;2.70;;;21.10;99.90;;;;;;5103717;27;20691;-70
2022/07/24 04:34:19;;;;;;;3.22;3.03;;;21.10;99.90;;;;;;5103475;27;20651;-70
2022/07/24 04:36:46;;;;;;;3.35;3.05;;;21.10;99.90;;;;;;5101795;27;20205;-70
2022/07/24 04:39:13;;;;;;;3.20;3.00;;;21.00;99.90;;;;;;5102212;27;20209;-70
2022/07/24 04:41:40;;;;;;;3.65;3.35;;;20.90;99.90;;;;;;5103266;27;20663;-71
2022/07/24 04:44:07;;;;;;;3.55;3.33;;;20.90;99.90;;;;;;5097394;28;20236;-72
2022/07/24 04:46:34;;;;;;;3.58;3.28;;;20.80;99.90;;;;;;5106746;27;20193;-70
2022/07/24 04:49:03;;;;;;;3.63;3.33;;;20.70;99.90;;;;;;5099335;27;20586;-71
2022/07/24 04:51:30;;;;;;;3.33;3.13;;;20.80;99.90;;;;;;5102384;27;20204;-71
2022/07/24 04:53:57;;;;;;;3.25;3.05;;;20.90;99.90;;;;;;5099135;27;20988;-70
2022/07/24 04:56:24;;;;;;;2.92;2.72;;;21.00;99.90;;;;;;5102164;27;20908;-72
2022/07/24 04:58:51;;;;;;;3.60;3.40;;;21.10;99.90;;;;;;5104156;27;20240;-70
2022/07/24 05:01:18;;;;;;;3.53;3.22;;;21.20;99.90;;;;;;5103336;27;20202;-70
2022/07/24 05:03:45;;;;;;;3.22;3.03;;;21.30;99.90;;;;;;5105502;27;20213;-70
2022/07/24 05:06:14;;;;;;;3.47;3.28;;;21.40;99.90;;;;;;5097452;27;20200;-71
2022/07/24 05:08:41;;;;;;;3.22;3.03;;;21.50;99.90;;;;;;5100347;27;20278;-71
2022/07/24 05:11:08;;;;;;;3.20;2.90;;;21.70;99.90;;;;;;5107053;27;20193;-72
2022/07/24 05:13:35;;;;;;;3.00;2.80;;;21.80;99.90;;;;;;5105816;27;20228;-71
2022/07/24 05:16:02;;;;;;;3.20;2.85;;;22.00;99.90;;;;;;5099323;27;20213;-71
2022/07/24 05:18:30;;;;;;;4.03;3.30;;;22.20;99.90;;;;;;5100539;27;20220;-69
2022/07/24 05:20:57;;;;;;;3.65;3.35;;;22.30;99.90;;;;;;5102371;28;20207;-71
2022/07/24 05:23:25;;;;;;;3.85;3.55;;;22.40;99.90;;;;;;5106112;27;20229;-71
2022/07/24 05:25:52;;;;;;;3.83;3.53;;;22.60;99.90;;;;;;5105950;27;20189;-71
2022/07/24 05:28:19;;;;;;;4.60;4.22;;;22.50;99.90;;;;;;5099657;27;20703;-71
2022/07/24 05:30:46;;;;;;;4.90;4.40;;;22.50;99.90;;;;;;5103100;27;20189;-71
2022/07/24 05:33:13;;;;;;;4.18;3.88;;;22.50;99.90;;;;;;5101588;27;20213;-70
2022/07/24 05:35:40;;;;;;;6.28;5.10;;;22.40;99.90;;;;;;5106505;27;20806;-71
2022/07/24 05:38:07;;;;;;;5.47;5.00;;;22.10;99.90;;;;;;5100245;27;20216;-73
2022/07/24 05:40:36;;;;;;;4.72;4.32;;;21.90;99.90;;;;;;5101062;27;20206;-71
2022/07/24 05:43:03;;;;;;;5.10;4.70;;;21.80;99.90;;;;;;5096150;27;20243;-71
2022/07/24 05:45:30;;;;;;;5.22;4.82;;;21.90;99.90;;;;;;5100605;27;20211;-71
2022/07/24 05:47:57;;;;;;;7.00;5.03;;;21.90;99.90;;;;;;5109141;27;20224;-70
2022/07/24 05:50:24;;;;;;;5.00;4.60;;;21.80;99.90;;;;;;5102956;27;20704;-71
2022/07/24 05:52:51;;;;;;;5.72;4.50;;;21.90;99.90;;;;;;5106910;27;20225;-70
2022/07/24 05:55:18;;;;;;;5.13;4.45;;;21.90;99.90;;;;;;5099936;27;20197;-71
2022/07/24 05:57:47;;;;;;;4.85;4.55;;;22.00;99.90;;;;;;5104632;27;20216;-70
2022/07/24 06:00:18;;;;;;;6.28;4.70;;;22.10;99.90;;;;;;5103606;27;20613;-70
2022/07/24 06:02:46;;;;;;;4.53;4.13;;;22.20;99.90;;;;;;5098929;27;20387;-70
2022/07/24 06:05:13;;;;;;;4.32;4.03;;;22.30;99.90;;;;;;5099312;27;20312;-72
2022/07/24 06:07:41;;;;;;;5.13;4.72;;;22.50;99.90;;;;;;5098133;27;20753;-73
2022/07/24 06:10:09;;;;;;;5.18;4.78;;;22.60;99.90;;;;;;5103642;27;20220;-72
2022/07/24 06:12:36;;;;;;;5.18;4.78;;;22.60;99.90;;;;;;5103370;27;20220;-71
2022/07/24 06:15:05;;;;;;;5.68;5.22;;;22.70;99.90;;;;;;5111889;27;20215;-72
2022/07/24 06:17:32;;;;;;;6.10;4.78;;;22.70;99.90;;;;;;5108516;27;20216;-72
2022/07/24 06:19:59;;;;;;;5.57;5.18;;;22.60;99.90;;;;;;5110142;27;20215;-72
2022/07/24 06:22:26;;;;;;;5.80;5.40;;;22.60;99.90;;;;;;5108554;27;20598;-72
2022/07/24 06:24:54;;;;;;;5.88;5.38;;;22.70;99.90;;;;;;5111375;27;20620;-72
2022/07/24 06:27:21;;;;;;;5.20;4.80;;;22.80;99.90;;;;;;5103298;27;20228;-73
2022/07/24 06:29:49;;;;;;;5.32;4.93;;;22.90;99.90;;;;;;5108954;27;20244;-73
2022/07/24 06:32:17;;;;;;;5.05;4.75;;;23.10;99.90;;;;;;5107357;27;20228;-72
2022/07/24 06:34:44;;;;;;;6.47;5.65;;;23.30;99.90;;;;;;5104265;27;20228;-72
2022/07/24 06:37:11;;;;;;;5.97;5.55;;;23.30;99.90;;;;;;5106486;27;20224;-73
2022/07/24 06:39:38;;;;;;;5.30;4.90;;;23.30;99.90;;;;;;5104887;27;20217;-73
2022/07/24 06:42:05;;;;;;;5.38;4.88;;;23.40;99.90;;;;;;5100129;27;20223;-73
2022/07/24 06:44:36;;;;;;;6.88;5.88;;;23.40;99.90;;;;;;5105999;28;20193;-70
2022/07/24 06:47:03;;;;;;;5.65;5.05;;;23.50;99.90;;;;;;5098247;27;20235;-73
2022/07/24 06:49:31;;;;;;;6.47;5.90;;;23.40;99.90;;;;;;5098330;27;20236;-73
2022/07/24 06:51:58;;;;;;;6.15;5.65;;;23.30;99.90;;;;;;5104981;27;20223;-73
2022/07/24 06:54:25;;;;;;;5.93;5.40;;;23.30;99.90;;;;;;5100445;28;20201;-71
2022/07/24 06:56:53;;;;;;;6.00;5.50;;;23.40;99.90;;;;;;5107680;27;20200;-72
2022/07/24 06:59:20;;;;;;;7.53;5.88;;;23.60;99.90;;;;;;5093385;28;20622;-70
2022/07/24 07:01:47;;;;;;;6.47;5.88;;;23.60;99.90;;;;;;5093926;27;20197;-70
2022/07/24 07:04:14;;;;;;;6.68;6.07;;;23.50;99.90;;;;;;5101608;27;20208;-71
2022/07/24 07:06:42;;;;;;;6.10;5.60;;;23.60;99.90;;;;;;5095427;27;20194;-71
2022/07/24 07:09:09;;;;;;;5.93;5.43;;;23.60;99.90;;;;;;5094640;28;20625;-72
2022/07/24 07:11:36;;;;;;;7.63;6.93;;;23.70;99.90;;;;;;5101607;28;20640;-72
2022/07/24 07:14:04;;;;;;;5.82;5.43;;;23.70;99.90;;;;;;5105998;27;20734;-72
2022/07/24 07:16:31;;;;;;;5.95;5.55;;;23.80;99.90;;;;;;5099311;28;20689;-70
2022/07/24 07:18:58;;;;;;;5.93;5.50;;;23.90;99.90;;;;;;5101177;27;20216;-72
2022/07/24 07:21:25;;;;;;;6.30;5.82;;;24.00;99.90;;;;;;5100958;28;20672;-72
2022/07/24 07:23:53;;;;;;;6.28;5.82;;;24.00;99.90;;;;;;5107009;27;20220;-71
2022/07/24 07:26:20;;;;;;;5.97;5.45;;;24.10;99.90;;;;;;5101414;28;20220;-71
2022/07/24 07:28:48;;;;;;;5.97;5.47;;;24.40;99.90;;;;;;5107439;27;20217;-72
2022/07/24 07:31:15;;;;;;;6.70;6.00;;;24.50;99.90;;;;;;5102625;27;20718;-72
2022/07/24 07:33:42;;;;;;;6.53;5.93;;;24.60;99.90;;;;;;5105170;27;20232;-72
2022/07/24 07:36:10;;;;;;;7.15;6.25;;;24.70;99.90;;;;;;5105282;27;20200;-71
2022/07/24 07:38:38;;;;;;;7.53;6.93;;;24.70;99.90;;;;;;5105263;27;20221;-73
2022/07/24 07:41:07;;;;;;;6.97;6.38;;;24.70;99.90;;;;;;5107920;27;20200;-72
2022/07/24 07:43:34;;;;;;;7.13;6.40;;;24.70;99.90;;;;;;5106470;27;20632;-71
2022/07/24 07:46:01;;;;;;;8.02;5.63;;;24.70;99.90;;;;;;5115213;27;20197;-72
2022/07/24 07:48:30;;;;;;;5.68;5.10;;;24.80;99.90;;;;;;5110595;27;20225;-71
2022/07/24 07:50:57;;;;;;;6.97;6.38;;;25.10;99.90;;;;;;5120357;27;20208;-70
2022/07/24 07:53:25;;;;;;;6.38;5.78;;;25.40;99.90;;;;;;5110111;27;20226;-72
2022/07/24 07:55:52;;;;;;;6.85;5.78;;;25.60;99.90;;;;;;5116600;27;20193;-72
2022/07/24 07:58:22;;;;;;;5.80;5.32;;;25.70;99.90;;;;;;5111813;27;20273;-72
2022/07/24 08:00:49;;;;;;;6.03;5.53;;;26.00;99.90;;;;;;5109566;27;20562;-70
2022/07/24 08:03:16;;;;;;;6.78;6.28;;;26.30;99.90;;;;;;5110964;27;20231;-72
2022/07/24 08:05:43;;;;;;;6.32;5.82;;;26.40;99.90;;;;;;5113150;27;20659;-69
2022/07/24 08:08:11;;;;;;;6.70;6.13;;;26.30;99.90;;;;;;5115424;27;20726;-72
2022/07/24 08:10:38;;;;;;;6.60;6.10;;;26.20;99.90;;;;;;5107631;27;20225;-73
2022/07/24 08:13:05;;;;;;;6.50;6.00;;;26.10;99.90;;;;;;5112634;27;20227;-72
2022/07/24 08:15:34;;;;;;;6.10;5.60;;;26.30;99.90;;;;;;5108560;27;20226;-71
2022/07/24 08:18:01;;;;;;;6.47;5.88;;;26.50;99.90;;;;;;5113903;27;20240;-73
2022/07/24 08:20:29;;;;;;;6.72;6.22;;;26.60;99.90;;;;;;5101187;27;20225;-72
2022/07/24 08:22:56;;;;;;;6.55;5.88;;;26.70;99.90;;;;;;5114009;27;20220;-72
2022/07/24 08:25:23;;;;;;;6.53;6.03;;;26.80;99.90;;;;;;5107966;27;20196;-72
2022/07/24 08:27:51;;;;;;;5.93;5.47;;;27.10;99.90;;;;;;5109634;27;20209;-72
2022/07/24 08:30:18;;;;;;;6.97;6.38;;;27.20;99.90;;;;;;5104312;27;20705;-72
2022/07/24 08:32:46;;;;;;;5.80;5.40;;;27.00;99.90;;;;;;5114812;27;20694;-72
2022/07/24 08:35:15;;;;;;;5.75;5.30;;;27.10;99.90;;;;;;5113876;27;20197;-72
2022/07/24 08:37:42;;;;;;;6.65;6.10;;;27.40;99.90;;;;;;5111637;27;21225;-72
2022/07/24 08:40:11;;;;;;;6.13;5.60;;;27.40;99.90;;;;;;5107008;27;20211;-73
2022/07/24 08:42:38;;;;;;;7.13;6.43;;;27.30;99.90;;;;;;5108870;27;20216;-73
2022/07/24 08:45:06;;;;;;;6.45;5.85;;;27.20;99.90;;;;;;5108138;27;20200;-73
2022/07/24 08:47:33;;;;;;;6.18;5.68;;;27.20;99.90;;;;;;5101792;27;20222;-72
2022/07/24 08:50:02;;;;;;;7.00;5.95;;;27.20;99.90;;;;;;5103767;27;20228;-72
2022/07/24 08:52:30;;;;;;;6.20;5.70;;;27.40;99.90;;;;;;5105357;27;20506;-73
2022/07/24 08:54:57;;;;;;;6.75;6.25;;;27.60;99.90;;;;;;5115941;27;20197;-73
2022/07/24 08:57:25;;;;;;;7.75;6.22;;;27.70;99.90;;;;;;5113749;27;20226;-74
2022/07/24 08:59:52;;;;;;;6.63;6.05;;;27.90;99.90;;;;;;5108687;27;20217;-73
2022/07/24 09:02:19;;;;;;;6.50;5.90;;;28.00;99.90;;;;;;5099951;27;20224;-72
2022/07/24 09:04:49;;;;;;;6.25;5.65;;;27.90;99.90;;;;;;5108929;27;20197;-72
2022/07/24 09:07:22;;;;;;;6.63;6.03;;;28.00;99.90;;;;;;5107912;27;20743;-72
2022/07/24 09:10:00;;;;;;;7.40;6.80;;;27.90;99.90;;;;;;5107274;27;20614;-72
2022/07/24 09:12:30;;;;;;;7.50;6.90;;;27.60;99.90;;;;;;5104111;27;20262;-74
2022/07/24 09:14:59;;;;;;;6.10;5.68;;;27.60;99.90;;;;;;5112858;27;20200;-73
2022/07/24 09:17:27;;;;;;;6.35;5.85;;;27.60;99.90;;;;;;5108031;27;20228;-73
2022/07/24 09:19:55;;;;;;;6.45;5.95;;;27.80;99.90;;;;;;5114050;27;20258;-74
2022/07/24 09:22:33;;;;;;;6.40;5.90;;;28.10;99.90;;;;;;5105115;27;20236;-74
2022/07/24 09:25:16;;;;;;;7.00;6.43;;;28.10;99.90;;;;;;5105633;27;20604;-73
2022/07/24 09:27:49;;;;;;;6.57;6.07;;;28.30;99.90;;;;;;5100831;27;20717;-72
2022/07/24 09:30:25;;;;;;;7.38;6.78;;;28.40;99.90;;;;;;5096273;27;20225;-73
2022/07/24 09:32:54;;;;;;;7.43;6.78;;;28.50;99.90;;;;;;5106640;27;20299;-73
2022/07/24 09:35:25;;;;;;;6.03;5.60;;;28.50;99.90;;;;;;5111894;27;20288;-72
2022/07/24 09:37:58;;;;;;;6.45;5.95;;;28.70;99.90;;;;;;5105555;27;20212;-75
2022/07/24 09:40:31;;;;;;;6.32;5.82;;;29.20;99.90;;;;;;5101907;27;20774;-73
2022/07/24 09:43:18;;;;;;;6.85;6.35;;;29.10;99.90;;;;;;5110991;27;20216;-73
2022/07/24 09:45:57;;;;;;;6.32;5.55;;;29.10;99.90;;;;;;5107237;27;20680;-73
2022/07/24 09:48:27;;;;;;;6.15;5.65;;;29.30;99.90;;;;;;5107922;27;20233;-73
2022/07/24 09:50:56;;;;;;;6.05;5.55;;;29.30;99.90;;;;;;5108689;27;21021;-73
2022/07/24 09:53:27;;;;;;;6.60;6.10;;;29.20;99.90;;;;;;5103615;27;20289;-73
2022/07/24 09:56:03;;;;;;;6.82;6.22;;;29.30;99.90;;;;;;5110971;27;20192;-74
2022/07/24 09:58:32;;;;;;;6.25;5.85;;;29.40;99.90;;;;;;5102161;27;20224;-73
2022/07/24 10:01:01;;;;;;;6.60;6.10;;;29.50;99.90;;;;;;5099821;27;20242;-74
2022/07/24 10:03:32;;;;;;;5.70;5.28;;;29.60;99.90;;;;;;5103289;27;20244;-74
2022/07/24 10:06:02;;;;;;;6.63;6.13;;;29.70;99.90;;;;;;5108139;27;20582;-74
2022/07/24 10:08:32;;;;;;;6.95;6.45;;;29.70;99.90;;;;;;5104872;27;20216;-73
2022/07/24 10:11:00;;;;;;;6.65;6.00;;;29.50;99.90;;;;;;5102540;27;20713;-75
2022/07/24 10:13:29;;;;;;;6.88;6.38;;;29.50;99.90;;;;;;5113394;27;20249;-73
2022/07/24 10:16:18;;;;;;;6.78;6.15;;;29.50;99.90;;;;;;5107900;27;20197;-73
2022/07/24 10:18:49;;;;;;;5.93;5.30;;;29.80;99.90;;;;;;5099689;27;20252;-72
2022/07/24 10:21:19;;;;;;;6.05;5.55;;;30.00;99.90;;;;;;5110621;27;20714;-69
2022/07/24 10:24:21;;;;;;;6.65;6.15;;;29.90;99.90;;;;;;5108453;27;20216;-72
2022/07/24 10:26:51;;;;;;;6.10;5.70;;;29.90;99.90;;;;;;5103864;27;20208;-71
2022/07/24 10:29:21;;;;;;;6.40;5.80;;;29.90;99.90;;;;;;5105102;27;20239;-73
2022/07/24 10:31:50;;;;;;;6.65;6.05;;;30.10;99.90;;;;;;5101925;27;20200;-73
2022/07/24 10:34:27;;;;;;;5.82;5.32;;;30.20;99.90;;;;;;5102907;27;20198;-74
2022/07/24 10:37:00;;;;;;;5.78;5.38;;;30.20;99.90;;;;;;5099288;27;20200;-73
2022/07/24 10:39:35;;;;;;;6.07;5.57;;;30.20;99.90;;;;;;5105615;27;20693;-75
2022/07/24 10:42:06;;;;;;;6.63;6.13;;;30.30;99.90;;;;;;5101320;27;20235;-75
2022/07/24 10:44:34;;;;;;;6.65;6.13;;;30.60;99.90;;;;;;5104230;27;20792;-76
2022/07/24 10:47:08;;;;;;;6.10;5.63;;;30.70;99.90;;;;;;5096942;27;20203;-74
2022/07/24 10:49:45;;;;;;;5.60;5.20;;;30.70;99.90;;;;;;5100651;27;20220;-74
2022/07/24 10:52:23;;;;;;;6.72;6.15;;;31.00;99.90;;;;;;5108353;27;20223;-74
2022/07/24 10:55:21;;;;;;;5.68;5.28;;;31.00;99.90;;;;;;5104399;28;20288;-74
2022/07/24 10:57:55;;;;;;;5.07;4.68;;;31.00;99.90;;;;;;5099411;27;20802;-75
2022/07/24 11:00:23;;;;;;;4.47;4.18;;;31.10;99.90;;;;;;5104632;28;21015;-75
2022/07/24 11:03:02;;;;;;;4.95;4.57;;;31.30;99.90;;;;;;5102238;27;20988;-76
2022/07/24 11:05:34;;;;;;;5.80;5.30;;;31.50;99.90;;;;;;5107933;27;20281;-75
2022/07/24 11:08:38;;;;;;;4.32;4.03;;;31.60;99.90;;;;;;5103153;27;20223;-74
2022/07/24 11:11:16;;;;;;;5.35;4.93;;;31.80;99.90;;;;;;5104098;27;20231;-73
2022/07/24 11:13:53;;;;;;;7.15;5.20;;;31.80;99.90;;;;;;5100290;27;20217;-72
2022/07/24 11:16:31;;;;;;;7.60;5.13;;;31.80;99.90;;;;;;5100340;27;20193;-69
2022/07/24 11:19:30;;;;;;;5.38;4.88;;;32.00;99.90;;;;;;5104645;27;20224;-73
2022/07/24 11:22:19;;;;;;;5.30;4.90;;;32.10;99.90;;;;;;5094458;27;20197;-73
2022/07/24 11:25:09;;;;;;;6.20;5.60;;;32.30;99.90;;;;;;5109173;27;20197;-74
2022/07/24 11:27:45;;;;;;;5.40;5.00;;;32.30;99.90;;;;;;5113151;27;20212;-73
2022/07/24 11:30:15;;;;;;;5.45;4.97;;;32.30;99.90;;;;;;5106971;27;20224;-70
2022/07/24 11:32:44;;;;;;;5.97;5.43;;;32.30;99.90;;;;;;5108338;27;20224;-75
2022/07/24 11:35:12;;;;;;;5.63;5.22;;;32.30;99.90;;;;;;5099501;27;20235;-79
2022/07/24 11:37:42;;;;;;;5.30;4.90;;;32.30;99.90;;;;;;5112115;27;20684;-73
2022/07/24 11:40:14;;;;;;;6.07;5.57;;;32.30;99.90;;;;;;5110258;27;20213;-73
2022/07/24 11:42:42;;;;;;;5.53;5.13;;;32.20;99.90;;;;;;5103485;27;20220;-77
2022/07/24 11:45:11;;;;;;;5.63;5.18;;;32.20;99.90;;;;;;5105429;27;20201;-75
2022/07/24 11:47:40;;;;;;;4.72;4.32;;;32.40;99.90;;;;;;5098850;27;20710;-77
2022/07/24 11:50:09;;;;;;;5.28;4.78;;;32.40;99.90;;;;;;5106001;27;20235;-74
2022/07/24 11:52:38;;;;;;;5.53;5.13;;;32.50;99.90;;;;;;5105406;27;20217;-75
2022/07/24 11:55:08;;;;;;;5.00;4.53;;;32.70;99.90;;;;;;5111206;27;20244;-78
2022/07/24 11:57:38;;;;;;;4.72;4.43;;;32.90;99.90;;;;;;5103388;27;20632;-77
2022/07/24 12:00:11;;;;;;;5.35;4.95;;;32.90;99.90;;;;;;5098067;27;20212;-77
2022/07/24 12:02:48;;;;;;;4.70;4.30;;;33.00;99.90;;;;;;5107145;27;20216;-76
2022/07/24 12:05:25;;;;;;;5.43;4.90;;;33.20;99.90;;;;;;5102878;27;20188;-75
2022/07/24 12:07:53;;;;;;;6.05;4.75;;;33.30;99.90;;;;;;5106691;27;20296;-75
2022/07/24 12:10:22;;;;;;;5.57;5.07;;;33.30;99.90;;;;;;5103045;27;20218;-76
2022/07/24 12:12:53;;;;;;;5.18;4.78;;;33.30;99.90;;;;;;5114164;27;20209;-76
2022/07/24 12:15:22;;;;;;;5.28;4.88;;;33.40;99.90;;;;;;5109446;27;20208;-74
2022/07/24 12:17:59;;;;;;;4.57;4.18;;;33.40;99.90;;;;;;5115149;27;20223;-75
2022/07/24 12:20:29;;;;;;;4.85;4.38;;;33.50;99.90;;;;;;5110515;27;20237;-75
2022/07/24 12:22:59;;;;;;;4.93;4.53;;;33.60;99.90;;;;;;5114071;27;20225;-72
2022/07/24 12:25:28;;;;;;;4.70;4.30;;;33.60;99.90;;;;;;5112591;27;20209;-76
2022/07/24 12:28:05;;;;;;;4.05;3.78;;;33.70;99.90;;;;;;5113103;27;20292;-74
2022/07/24 12:30:35;;;;;;;4.82;4.53;;;33.70;99.90;;;;;;5113217;27;20215;-74
2022/07/24 12:33:05;;;;;;;4.80;4.40;;;33.90;99.90;;;;;;5114331;27;20824;-75
2022/07/24 12:35:36;;;;;;;4.38;4.07;;;34.20;99.90;;;;;;5111330;27;21102;-75
2022/07/24 12:38:04;;;;;;;4.20;3.90;;;34.30;99.90;;;;;;5114028;27;20241;-74
2022/07/24 12:40:35;;;;;;;4.20;3.90;;;34.40;99.90;;;;;;5107492;27;20217;-73
2022/07/24 12:43:07;;;;;;;4.75;4.22;;;34.40;99.90;;;;;;5114576;27;20222;-74
2022/07/24 12:45:35;;;;;;;4.68;4.20;;;34.30;99.90;;;;;;5114273;27;20193;-73
2022/07/24 12:48:25;;;;;;;4.45;4.05;;;34.40;99.90;;;;;;5113810;27;20216;-72
2022/07/24 12:51:15;;;;;;;4.50;4.20;;;34.50;99.90;;;;;;5107237;27;20283;-72
2022/07/24 12:53:44;;;;;;;5.00;4.60;;;34.70;99.90;;;;;;5110728;27;20220;-71
2022/07/24 12:56:16;;;;;;;5.22;4.82;;;34.60;99.90;;;;;;5107404;27;20192;-72
2022/07/24 12:59:07;;;;;;;5.05;4.65;;;34.50;99.90;;;;;;5110226;27;20220;-74